La Suprema — IBIL — position and weather

sailwx.info

Track history (hours):
 
Tides and Currents Weather Stations Pressure Air Temp Water Temp Dewpoint Dewpoint Depression Visibility Wind Speed Wind Dir Waves Ship Positions

La Suprema

Last reported at 2016-May-03 02:21 UTC. Time now 2016-May-03 04:54 UTC.
Position N 42°35' E 009°51'.

Length 211 m; draft 7.5 m.

Type: Passenger vessel. MMSI: 247083700.

Date/timePositionNaut miles runAvg speedWind from/ knotsBaromVisibWave heightAir tempDewpointWater temp
2016-May-03 02:21N 42°35' E 009°51'1822.6
2016-May-03 01:33N 42°52' E 009°42'2222.2
2016-May-03 00:33N 43°13' E 009°33'2222.4
2016-May-02 23:33N 43°34' E 009°22'2222.3
2016-May-02 22:33N 43°55' E 009°13'2222.4
2016-May-02 21:34N 44°16' E 009°00'10 9.5
2016-May-02 20:32N 44°24' E 008°55'0 0.0
2016-May-02 19:32N 44°24' E 008°55'0 0.0
2016-May-02 18:31N 44°24' E 008°55'0 0.0
2016-May-02 17:28N 44°24' E 008°55'0 0.0
2016-May-02 16:28N 44°24' E 008°55'0 0.0
2016-May-02 15:30N 44°24' E 008°55'0 0.0
2016-May-02 14:33N 44°24' E 008°55'0 0.0
2016-May-02 13:32N 44°24' E 008°55'0 0.0
2016-May-02 12:32N 44°24' E 008°55'0 0.0
2016-May-02 11:31N 44°24' E 008°55'0 0.0
2016-May-02 10:31N 44°24' E 008°55'0 0.0
2016-May-02 09:28N 44°24' E 008°55'0 0.0
2016-May-02 05:25N 44°24' E 008°55'0 0.0
2016-May-02 04:25N 44°24' E 008°55'0 0.0
2016-May-02 03:28N 44°24' E 008°55'0 0.0
2016-May-02 02:33N 44°24' E 008°55'0 0.0
2016-May-02 01:27N 44°24' E 008°55'0 0.0
2016-May-02 00:29N 44°24' E 008°55'0 0.0
2016-May-01 23:29N 44°24' E 008°55'0 0.0
2016-May-01 22:31N 44°24' E 008°55'0 0.0
2016-May-01 21:31N 44°24' E 008°55'0 0.0
2016-May-01 20:31N 44°24' E 008°55'0 0.0
2016-May-01 19:33N 44°24' E 008°55'0 0.0
2016-May-01 18:33N 44°24' E 008°55'1010.3
2016-May-01 17:33N 44°16' E 009°03'2222.0
2016-May-01 16:33N 43°57' E 009°19'2222.3
2016-May-01 15:33N 43°38' E 009°34'2222.0
2016-May-01 14:34N 43°19' E 009°49'32721.8
2016-Apr-30 23:33N 38°29' E 013°11'2322.9
2016-Apr-30 22:33N 38°09' E 013°26'3 3.3
2016-Apr-30 21:33N 38°08' E 013°22'0 0.0
2016-Apr-30 20:32N 38°08' E 013°22'0 0.0
2016-Apr-30 19:32N 38°08' E 013°22'0 0.0
2016-Apr-30 18:31N 38°08' E 013°22'0 0.0
2016-Apr-30 17:31N 38°08' E 013°22'0 0.2
2016-Apr-30 16:33N 38°08' E 013°22'1514.9
2016-Apr-30 15:33N 38°22' E 013°16'30222.6
2016-Apr-30 02:11N 42°40' E 009°49'1522.9
2016-Apr-30 01:32N 42°54' E 009°41'2222.5
2016-Apr-30 00:34N 43°14' E 009°31'2322.7
2016-Apr-29 23:34N 43°35' E 009°21'2322.5
2016-Apr-29 22:34N 43°57' E 009°10'2222.3
2016-Apr-29 21:34N 44°18' E 008°59'8 7.2
2016-Apr-29 20:31N 44°25' E 008°55'0 0.0
2016-Apr-29 19:30N 44°25' E 008°55'0 0.0
2016-Apr-29 18:33N 44°25' E 008°55'0 0.0
2016-Apr-29 17:32N 44°25' E 008°55'0 0.1
2016-Apr-29 16:33N 44°25' E 008°55'1616.4
2016-Apr-29 15:33N 44°11' E 009°07'2423.5
2016-Apr-29 14:33N 43°50' E 009°24'2323.4
2016-Apr-29 13:33N 43°30' E 009°40'2423.5
2016-Apr-29 12:33N 43°10' E 009°56'2322.6
2016-Apr-29 11:33N 42°47' E 010°02'29322.5
2016-Apr-28 22:33N 38°32' E 013°10'2221.7
2016-Apr-28 21:33N 38°13' E 013°25'6 5.7
2016-Apr-28 20:31N 38°08' E 013°22'0 0.0
2016-Apr-28 19:31N 38°08' E 013°22'0 0.0
2016-Apr-28 18:33N 38°08' E 013°22'0 0.0
2016-Apr-28 17:33N 38°08' E 013°22'3 2.7
2016-Apr-28 16:33N 38°10' E 013°24'2020.3
2016-Apr-28 15:34N 38°28' E 013°12'29522.5
2016-Apr-28 02:29N 42°39' E 009°49'2922.6
2016-Apr-28 01:11N 43°06' E 009°35'1421.8
2016-Apr-28 00:33N 43°19' E 009°30'2121.0
2016-Apr-27 23:34N 43°39' E 009°19'2120.5
2016-Apr-27 22:34N 43°58' E 009°08'2121.2
2016-Apr-27 21:33N 44°18' E 008°58'7 6.0
2016-Apr-27 20:22N 44°25' E 008°55'0 0.0
2016-Apr-27 19:30N 44°25' E 008°55'0 0.0
2016-Apr-27 18:24N 44°25' E 008°55'0 0.0
2016-Apr-27 17:29N 44°25' E 008°55'3 3.0
2016-Apr-27 16:33N 44°22' E 008°57'2222.4
2016-Apr-27 15:33N 44°03' E 009°13'2222.2
2016-Apr-27 14:33N 43°44' E 009°29'2121.2
2016-Apr-27 13:33N 43°26' E 009°43'2120.8
2016-Apr-27 12:33N 43°08' E 009°58'31122.2
2016-Apr-26 22:33N 38°33' E 013°08'2323.1
2016-Apr-26 21:34N 38°13' E 013°24'5 5.1
2016-Apr-26 20:32N 38°08' E 013°22'0 0.0
2016-Apr-26 19:32N 38°08' E 013°22'0 0.0
2016-Apr-26 18:31N 38°08' E 013°22'0 0.0
2016-Apr-26 17:31N 38°08' E 013°22'0 0.0
2016-Apr-26 16:33N 38°08' E 013°22'1211.8
2016-Apr-26 15:34N 38°19' E 013°19'32922.9
2016-Apr-26 01:11N 43°02' E 009°37'1422.2
2016-Apr-26 00:33N 43°16' E 009°32'2121.4
2016-Apr-25 23:33N 43°36' E 009°22'2121.4
2016-Apr-25 22:33N 43°55' E 009°10'2222.1
2016-Apr-25 21:33N 44°16' E 008°60'9 8.9
2016-Apr-25 20:32N 44°25' E 008°55'0 0.0
2016-Apr-25 19:26N 44°25' E 008°55'0 0.0
2016-Apr-25 18:26N 44°25' E 008°55'0 0.0
2016-Apr-25 17:28N 44°25' E 008°55'0 0.0
2016-Apr-25 16:28N 44°25' E 008°55'0 0.0
2016-Apr-25 15:29N 44°25' E 008°55'0 0.0
2016-Apr-25 14:30N 44°25' E 008°55'0 0.0
2016-Apr-25 13:23N 44°25' E 008°55'0 0.0
2016-Apr-25 12:32N 44°25' E 008°55'0 0.0
2016-Apr-25 11:32N 44°25' E 008°55'0 0.0
2016-Apr-25 10:31N 44°25' E 008°55'0 0.0
2016-Apr-25 09:25N 44°25' E 008°55'0 0.0
2016-Apr-25 08:33N 44°25' E 008°55'0 0.0
2016-Apr-25 07:33N 44°25' E 008°55'0 0.0
2016-Apr-25 06:26N 44°25' E 008°55'0 0.0
2016-Apr-25 05:29N 44°25' E 008°55'0 0.0
2016-Apr-25 04:29N 44°25' E 008°55'0 0.0
2016-Apr-25 03:31N 44°25' E 008°55'0 0.0
2016-Apr-25 02:31N 44°25' E 008°55'0 0.0
2016-Apr-25 01:33N 44°25' E 008°55'0 0.0
2016-Apr-25 00:33N 44°25' E 008°55'0 0.0
2016-Apr-24 23:32N 44°25' E 008°55'0 0.0
2016-Apr-24 22:32N 44°25' E 008°55'0 0.0
2016-Apr-24 21:28N 44°25' E 008°55'0 0.0
2016-Apr-24 20:28N 44°25' E 008°55'0 0.0
2016-Apr-24 19:28N 44°25' E 008°55'0 0.0
2016-Apr-24 18:30N 44°25' E 008°55'8 8.1
2016-Apr-24 17:34N 44°18' E 009°01'2424.3
2016-Apr-24 16:34N 43°56' E 009°14'2424.2
2016-Apr-24 15:34N 43°34' E 009°28'2424.2
2016-Apr-24 14:34N 43°11' E 009°38'31821.2
2016-Apr-23 23:33N 38°32' E 013°00'2222.2
2016-Apr-23 22:33N 38°17' E 013°21'9 8.7
2016-Apr-23 21:31N 38°08' E 013°22'0 0.0
2016-Apr-23 20:33N 38°08' E 013°22'0 0.0
2016-Apr-23 19:33N 38°08' E 013°22'0 0.0
2016-Apr-23 18:32N 38°08' E 013°22'0 0.0
2016-Apr-23 17:34N 38°08' E 013°22'1010.3
2016-Apr-23 16:33N 38°18' E 013°20'2222.4
2016-Apr-23 15:33N 38°37' E 013°04'  
Track history (hours):
 
Tides and Currents Weather Stations Pressure Air Temp Water Temp Dewpoint Dewpoint Depression Visibility Wind Speed Wind Dir Waves Ship Positions

La Suprema

Last reported at 2016-May-03 02:21 UTC. Time now 2016-May-03 04:54 UTC.
Position N 42°35' E 009°51'.

Length 211 m; draft 7.5 m.

Type: Passenger vessel. MMSI: 247083700.

Date/timePositionNaut miles runAvg speedWind from/ knotsBaromVisibWave heightAir tempDewpointWater temp
2016-May-03 02:21N 42°35' E 009°51'1822.6
2016-May-03 01:33N 42°52' E 009°42'2222.2
2016-May-03 00:33N 43°13' E 009°33'2222.4
2016-May-02 23:33N 43°34' E 009°22'2222.3
2016-May-02 22:33N 43°55' E 009°13'2222.4
2016-May-02 21:34N 44°16' E 009°00'10 9.5
2016-May-02 20:32N 44°24' E 008°55'0 0.0
2016-May-02 19:32N 44°24' E 008°55'0 0.0
2016-May-02 18:31N 44°24' E 008°55'0 0.0
2016-May-02 17:28N 44°24' E 008°55'0 0.0
2016-May-02 16:28N 44°24' E 008°55'0 0.0
2016-May-02 15:30N 44°24' E 008°55'0 0.0
2016-May-02 14:33N 44°24' E 008°55'0 0.0
2016-May-02 13:32N 44°24' E 008°55'0 0.0
2016-May-02 12:32N 44°24' E 008°55'0 0.0
2016-May-02 11:31N 44°24' E 008°55'0 0.0
2016-May-02 10:31N 44°24' E 008°55'0 0.0
2016-May-02 09:28N 44°24' E 008°55'0 0.0
2016-May-02 05:25N 44°24' E 008°55'0 0.0
2016-May-02 04:25N 44°24' E 008°55'0 0.0
2016-May-02 03:28N 44°24' E 008°55'0 0.0
2016-May-02 02:33N 44°24' E 008°55'0 0.0
2016-May-02 01:27N 44°24' E 008°55'0 0.0
2016-May-02 00:29N 44°24' E 008°55'0 0.0
2016-May-01 23:29N 44°24' E 008°55'0 0.0
2016-May-01 22:31N 44°24' E 008°55'0 0.0
2016-May-01 21:31N 44°24' E 008°55'0 0.0
2016-May-01 20:31N 44°24' E 008°55'0 0.0
2016-May-01 19:33N 44°24' E 008°55'0 0.0
2016-May-01 18:33N 44°24' E 008°55'1010.3
2016-May-01 17:33N 44°16' E 009°03'2222.0
2016-May-01 16:33N 43°57' E 009°19'2222.3
2016-May-01 15:33N 43°38' E 009°34'2222.0
2016-May-01 14:34N 43°19' E 009°49'32721.8
2016-Apr-30 23:33N 38°29' E 013°11'2322.9
2016-Apr-30 22:33N 38°09' E 013°26'3 3.3
2016-Apr-30 21:33N 38°08' E 013°22'0 0.0
2016-Apr-30 20:32N 38°08' E 013°22'0 0.0
2016-Apr-30 19:32N 38°08' E 013°22'0 0.0
2016-Apr-30 18:31N 38°08' E 013°22'0 0.0
2016-Apr-30 17:31N 38°08' E 013°22'0 0.2
2016-Apr-30 16:33N 38°08' E 013°22'1514.9
2016-Apr-30 15:33N 38°22' E 013°16'30222.6
2016-Apr-30 02:11N 42°40' E 009°49'1522.9
2016-Apr-30 01:32N 42°54' E 009°41'2222.5
2016-Apr-30 00:34N 43°14' E 009°31'2322.7
2016-Apr-29 23:34N 43°35' E 009°21'2322.5
2016-Apr-29 22:34N 43°57' E 009°10'2222.3
2016-Apr-29 21:34N 44°18' E 008°59'8 7.2
2016-Apr-29 20:31N 44°25' E 008°55'0 0.0
2016-Apr-29 19:30N 44°25' E 008°55'0 0.0
2016-Apr-29 18:33N 44°25' E 008°55'0 0.0
2016-Apr-29 17:32N 44°25' E 008°55'0 0.1
2016-Apr-29 16:33N 44°25' E 008°55'1616.4
2016-Apr-29 15:33N 44°11' E 009°07'2423.5
2016-Apr-29 14:33N 43°50' E 009°24'2323.4
2016-Apr-29 13:33N 43°30' E 009°40'2423.5
2016-Apr-29 12:33N 43°10' E 009°56'2322.6
2016-Apr-29 11:33N 42°47' E 010°02'29322.5
2016-Apr-28 22:33N 38°32' E 013°10'2221.7
2016-Apr-28 21:33N 38°13' E 013°25'6 5.7
2016-Apr-28 20:31N 38°08' E 013°22'0 0.0
2016-Apr-28 19:31N 38°08' E 013°22'0 0.0
2016-Apr-28 18:33N 38°08' E 013°22'0 0.0
2016-Apr-28 17:33N 38°08' E 013°22'3 2.7
2016-Apr-28 16:33N 38°10' E 013°24'2020.3
2016-Apr-28 15:34N 38°28' E 013°12'29522.5
2016-Apr-28 02:29N 42°39' E 009°49'2922.6
2016-Apr-28 01:11N 43°06' E 009°35'1421.8
2016-Apr-28 00:33N 43°19' E 009°30'2121.0
2016-Apr-27 23:34N 43°39' E 009°19'2120.5
2016-Apr-27 22:34N 43°58' E 009°08'2121.2
2016-Apr-27 21:33N 44°18' E 008°58'7 6.0
2016-Apr-27 20:22N 44°25' E 008°55'0 0.0
2016-Apr-27 19:30N 44°25' E 008°55'0 0.0
2016-Apr-27 18:24N 44°25' E 008°55'0 0.0
2016-Apr-27 17:29N 44°25' E 008°55'3 3.0
2016-Apr-27 16:33N 44°22' E 008°57'2222.4
2016-Apr-27 15:33N 44°03' E 009°13'2222.2
2016-Apr-27 14:33N 43°44' E 009°29'2121.2
2016-Apr-27 13:33N 43°26' E 009°43'2120.8
2016-Apr-27 12:33N 43°08' E 009°58'31122.2
2016-Apr-26 22:33N 38°33' E 013°08'2323.1
2016-Apr-26 21:34N 38°13' E 013°24'5 5.1
2016-Apr-26 20:32N 38°08' E 013°22'0 0.0
2016-Apr-26 19:32N 38°08' E 013°22'0 0.0
2016-Apr-26 18:31N 38°08' E 013°22'0 0.0
2016-Apr-26 17:31N 38°08' E 013°22'0 0.0
2016-Apr-26 16:33N 38°08' E 013°22'1211.8
2016-Apr-26 15:34N 38°19' E 013°19'32922.9
2016-Apr-26 01:11N 43°02' E 009°37'1422.2
2016-Apr-26 00:33N 43°16' E 009°32'2121.4
2016-Apr-25 23:33N 43°36' E 009°22'2121.4
2016-Apr-25 22:33N 43°55' E 009°10'2222.1
2016-Apr-25 21:33N 44°16' E 008°60'9 8.9
2016-Apr-25 20:32N 44°25' E 008°55'0 0.0
2016-Apr-25 19:26N 44°25' E 008°55'0 0.0
2016-Apr-25 18:26N 44°25' E 008°55'0 0.0
2016-Apr-25 17:28N 44°25' E 008°55'0 0.0
2016-Apr-25 16:28N 44°25' E 008°55'0 0.0
2016-Apr-25 15:29N 44°25' E 008°55'0 0.0
2016-Apr-25 14:30N 44°25' E 008°55'0 0.0
2016-Apr-25 13:23N 44°25' E 008°55'0 0.0
2016-Apr-25 12:32N 44°25' E 008°55'0 0.0
2016-Apr-25 11:32N 44°25' E 008°55'0 0.0
2016-Apr-25 10:31N 44°25' E 008°55'0 0.0
2016-Apr-25 09:25N 44°25' E 008°55'0 0.0
2016-Apr-25 08:33N 44°25' E 008°55'0 0.0
2016-Apr-25 07:33N 44°25' E 008°55'0 0.0
2016-Apr-25 06:26N 44°25' E 008°55'0 0.0
2016-Apr-25 05:29N 44°25' E 008°55'0 0.0
2016-Apr-25 04:29N 44°25' E 008°55'0 0.0
2016-Apr-25 03:31N 44°25' E 008°55'0 0.0
2016-Apr-25 02:31N 44°25' E 008°55'0 0.0
2016-Apr-25 01:33N 44°25' E 008°55'0 0.0
2016-Apr-25 00:33N 44°25' E 008°55'0 0.0
2016-Apr-24 23:32N 44°25' E 008°55'0 0.0
2016-Apr-24 22:32N 44°25' E 008°55'0 0.0
2016-Apr-24 21:28N 44°25' E 008°55'0 0.0
2016-Apr-24 20:28N 44°25' E 008°55'0 0.0
2016-Apr-24 19:28N 44°25' E 008°55'0 0.0
2016-Apr-24 18:30N 44°25' E 008°55'8 8.1
2016-Apr-24 17:34N 44°18' E 009°01'2424.3
2016-Apr-24 16:34N 43°56' E 009°14'2424.2
2016-Apr-24 15:34N 43°34' E 009°28'2424.2
2016-Apr-24 14:34N 43°11' E 009°38'31821.2
2016-Apr-23 23:33N 38°32' E 013°00'2222.2
2016-Apr-23 22:33N 38°17' E 013°21'9 8.7
2016-Apr-23 21:31N 38°08' E 013°22'0 0.0
2016-Apr-23 20:33N 38°08' E 013°22'0 0.0
2016-Apr-23 19:33N 38°08' E 013°22'0 0.0
2016-Apr-23 18:32N 38°08' E 013°22'0 0.0
2016-Apr-23 17:34N 38°08' E 013°22'1010.3
2016-Apr-23 16:33N 38°18' E 013°20'2222.4
2016-Apr-23 15:33N 38°37' E 013°04'  

Dump ship's entire track history